Time;durP1;ratioP1;P1;durP2;ratioP2;P2;SDS_P1;SDS_P2;PMS_P1;PMS_P2;Temp;Humidity;BMP_temperature;BMP_pressure;BME280_temperature;BME280_humidity;BME280_pressure;Samples;Min_cycle;Max_cycle;Signal;HPM_P1;HPM_P2
2022/11/25 00:02:18;;;;;;;2.80;2.50;;;;;;;11.41;61.70;94406.50;5013890;28;20196;-84
2022/11/25 00:04:45;;;;;;;2.50;2.10;;;;;;;11.40;61.79;94414.31;5025966;28;20191;-84
2022/11/25 00:07:12;;;;;;;2.50;2.30;;;;;;;11.40;61.82;94414.31;5030429;28;20188;-79
2022/11/25 00:09:39;;;;;;;2.53;2.33;;;;;;;11.35;61.61;94416.53;5034557;28;20536;-80
2022/11/25 00:12:06;;;;;;;2.43;2.23;;;;;;;11.40;61.79;94422.00;5037145;28;20202;-85
2022/11/25 00:14:33;;;;;;;2.00;1.90;;;;;;;11.40;61.80;94422.00;5026542;28;20195;-90
2022/11/25 00:16:59;;;;;;;2.60;2.40;;;;;;;11.40;61.69;94429.69;5030041;28;20507;-81
2022/11/25 00:19:28;;;;;;;2.40;2.20;;;;;;;11.40;61.73;94433.06;5031805;28;20198;-84
2022/11/25 00:21:54;;;;;;;2.60;2.40;;;;;;;11.40;61.54;94432.25;5033878;28;20674;-81
2022/11/25 00:24:21;;;;;;;2.50;2.30;;;;;;;11.37;61.69;94424.88;5033659;28;20239;-85
2022/11/25 00:26:48;;;;;;;2.90;2.40;;;;;;;11.39;61.71;94434.00;5033975;28;20199;-79
2022/11/25 00:29:15;;;;;;;3.17;2.17;;;;;;;11.38;61.58;94429.84;5033767;28;20195;-86
2022/11/25 00:31:42;;;;;;;2.50;2.30;;;;;;;11.38;61.77;94424.72;5034138;28;20207;-80
2022/11/25 00:34:12;;;;;;;2.80;2.50;;;;;;;11.36;61.72;94428.41;5015482;28;20195;-82
2022/11/25 00:36:40;;;;;;;3.50;2.10;;;;;;;11.40;61.63;94437.38;5013803;28;20185;-82
2022/11/25 00:39:11;;;;;;;2.60;2.20;;;;;;;11.40;61.63;94438.19;5014361;28;20199;-84
2022/11/25 00:44:38;;;;;;;3.90;2.47;;;;;;;11.38;61.66;94434.16;5011185;28;20218;-85
2022/11/25 00:47:07;;;;;;;2.77;2.40;;;;;;;11.37;61.59;94433.34;5014192;28;20201;-79
2022/11/25 00:49:34;;;;;;;2.67;2.47;;;;;;;11.38;61.67;94429.84;5030815;28;20545;-83
2022/11/25 00:52:03;;;;;;;2.57;2.37;;;;;;;11.32;61.78;94425.31;5030762;28;20545;-86
2022/11/25 00:54:30;;;;;;;3.13;2.63;;;;;;;11.34;61.73;94428.53;5030305;28;21113;-83
2022/11/25 00:56:57;;;;;;;3.10;2.27;;;;;;;11.36;61.75;94428.41;5030694;28;20200;-80
2022/11/25 00:59:24;;;;;;;2.20;2.00;;;;;;;11.33;61.95;94426.13;5030492;28;20199;-81
2022/11/25 01:01:51;;;;;;;3.57;2.63;;;;;;;11.28;61.92;94417.13;5029539;28;20190;-82
2022/11/25 01:04:18;;;;;;;4.03;2.63;;;;;;;11.35;61.89;94435.25;5031109;28;20191;-81
2022/11/25 01:06:45;;;;;;;2.70;2.50;;;;;;;11.34;61.79;94435.41;5031140;28;20785;-83
2022/11/25 01:09:13;;;;;;;2.80;2.60;;;;;;;11.35;62.02;94434.44;5030921;28;20208;-85
2022/11/25 01:11:40;;;;;;;4.00;2.80;;;;;;;11.34;61.77;94431.09;5031146;28;20199;-84
2022/11/25 01:14:07;;;;;;;4.07;2.63;;;;;;;11.34;61.88;94437.97;5011600;28;20663;-84
2022/11/25 01:16:34;;;;;;;2.60;2.40;;;;;;;11.27;61.78;94425.78;5014357;28;20247;-83
2022/11/25 01:19:02;;;;;;;3.03;2.57;;;;;;;11.32;61.80;94427.88;5021879;28;20231;-82
2022/11/25 01:21:30;;;;;;;3.73;2.27;;;;;;;11.35;61.89;94431.88;5030747;28;20199;-83
2022/11/25 01:23:59;;;;;;;2.90;2.57;;;;;;;11.34;61.82;94430.28;5030888;28;20204;-83
2022/11/25 01:26:28;;;;;;;2.63;2.43;;;;;;;11.34;61.81;94425.16;5030608;28;20286;-84
2022/11/25 01:28:56;;;;;;;2.60;2.40;;;;;;;11.32;61.91;94419.41;5032762;28;20675;-83
2022/11/25 01:31:25;;;;;;;2.43;2.20;;;;;;;11.32;61.83;94422.75;5021406;28;20258;-84
2022/11/25 01:33:56;;;;;;;2.17;2.07;;;;;;;11.09;61.78;94380.66;5036648;28;20218;-85
2022/11/25 01:36:24;;;;;;;2.97;2.63;;;;;;;11.33;61.89;94421.81;5029177;28;20187;-85
2022/11/25 01:38:52;;;;;;;4.93;2.80;;;;;;;11.28;61.92;94406.09;5038788;28;20221;-84
2022/11/25 01:41:19;;;;;;;2.97;2.70;;;;;;;11.33;61.68;94410.78;5032537;28;20199;-84
2022/11/25 01:44:11;;;;;;;3.53;2.67;;;;;;;11.32;61.87;94402.28;5035886;28;20207;-82
2022/11/25 01:46:46;;;;;;;3.23;2.47;;;;;;;11.32;62.06;94396.38;5019580;28;20228;-84
2022/11/25 01:49:17;;;;;;;3.03;2.63;;;;;;;11.30;61.94;94397.28;5015122;28;20192;-84
2022/11/25 01:51:48;;;;;;;2.67;2.47;;;;;;;11.31;61.96;94390.41;5013135;28;20192;-85
2022/11/25 01:54:22;;;;;;;3.10;2.80;;;;;;;11.17;62.18;94362.81;5024007;28;20199;-82
2022/11/25 01:56:52;;;;;;;2.70;2.50;;;;;;;11.30;61.94;94389.63;5028214;28;20192;-83
2022/11/25 01:59:21;;;;;;;2.97;2.30;;;;;;;11.29;61.93;94380.34;5014308;28;20591;-81
2022/11/25 02:01:49;;;;;;;2.50;2.30;;;;;;;11.30;61.91;94384.50;5013130;28;20219;-86
2022/11/25 02:04:20;;;;;;;3.33;2.70;;;;;;;11.32;61.57;94396.38;5013521;28;20196;-81
2022/11/25 02:06:52;;;;;;;3.73;2.60;;;;;;;11.32;61.78;94402.28;5013663;28;20585;-81
2022/11/25 02:09:21;;;;;;;2.67;2.47;;;;;;;11.32;61.74;94404.03;5013720;28;20223;-82
2022/11/25 02:11:51;;;;;;;2.53;2.33;;;;;;;11.32;61.64;94406.59;5013406;28;20203;-85
2022/11/25 02:14:21;;;;;;;2.17;2.07;;;;;;;11.32;61.73;94398.94;5012220;28;20199;-83
2022/11/25 02:16:48;;;;;;;2.67;2.47;;;;;;;11.32;61.48;94404.84;5012540;28;20563;-82
2022/11/25 02:19:22;;;;;;;2.40;2.20;;;;;;;11.32;61.49;94409.16;5012856;28;20224;-80
2022/11/25 02:21:54;;;;;;;2.47;2.27;;;;;;;11.29;61.47;94407.69;5011982;28;20196;-80
2022/11/25 02:24:32;;;;;;;2.23;2.07;;;;;;;11.30;61.36;94404.97;5013034;28;20232;-79
2022/11/25 02:27:00;;;;;;;2.63;2.40;;;;;;;11.29;61.30;94411.06;5017177;28;20663;-77
2022/11/25 02:29:28;;;;;;;2.30;2.10;;;;;;;11.31;61.41;94408.34;5040666;28;20183;-80
2022/11/25 02:31:55;;;;;;;2.37;2.20;;;;;;;11.27;61.55;94410.41;5040127;28;20187;-78
2022/11/25 02:34:21;;;;;;;2.53;2.33;;;;;;;11.30;61.22;94407.53;5035288;28;20195;-81
2022/11/25 02:36:49;;;;;;;2.23;1.97;;;;;;;11.28;61.30;94414.56;5032449;28;20223;-82
2022/11/25 02:39:19;;;;;;;2.00;1.90;;;;;;;11.26;61.16;94413.09;5034717;28;20211;-83
2022/11/25 02:41:50;;;;;;;3.50;2.27;;;;;;;11.27;61.22;94412.97;5033286;28;20187;-83
2022/11/25 02:44:19;;;;;;;2.97;2.17;;;;;;;11.28;61.08;94413.78;5027565;28;20269;-81
2022/11/25 02:46:46;;;;;;;2.87;2.30;;;;;;;11.25;61.19;94411.50;5013865;28;20188;-80
2022/11/25 02:49:13;;;;;;;2.57;2.37;;;;;;;11.27;61.11;94415.53;5013621;28;20192;-85
2022/11/25 02:51:43;;;;;;;2.50;2.30;;;;;;;11.27;61.13;94420.66;5014367;28;20195;-80
2022/11/25 02:54:10;;;;;;;2.73;2.43;;;;;;;11.27;60.92;94422.41;5019698;28;20185;-78
2022/11/25 02:56:38;;;;;;;2.20;2.03;;;;;;;11.28;60.87;94429.13;5017943;28;20219;-85
2022/11/25 02:59:06;;;;;;;2.30;2.10;;;;;;;11.28;60.74;94432.50;5028152;28;20223;-78
2022/11/25 03:01:35;;;;;;;2.00;1.90;;;;;;;11.25;61.02;94419.19;5049235;28;20188;-78
2022/11/25 03:04:02;;;;;;;2.10;2.00;;;;;;;11.26;60.88;94444.63;5029586;28;20554;-78
2022/11/25 03:06:30;;;;;;;2.00;1.90;;;;;;;11.27;60.79;94435.22;5010764;28;20204;-83
2022/11/25 03:08:57;;;;;;;2.53;2.30;;;;;;;11.27;60.84;94433.47;5010734;28;20574;-78
2022/11/25 03:12:17;;;;;;;2.40;2.20;;;;;;;11.27;60.89;94436.00;5010178;28;20188;-81
2022/11/25 03:14:12;;;;;;;2.40;2.20;;;;;;;11.26;61.29;94436.94;5019118;28;20278;-82
2022/11/25 03:16:40;;;;;;;2.17;2.07;;;;;;;11.28;60.80;94436.81;5029948;28;20184;-81
2022/11/25 03:19:07;;;;;;;2.17;2.00;;;;;;;11.26;60.79;94434.38;5029882;28;20223;-85
2022/11/25 03:21:34;;;;;;;2.83;2.33;;;;;;;11.19;60.81;94425.72;5029642;28;20222;-76
2022/11/25 03:24:00;;;;;;;2.95;2.20;;;;;;;11.25;60.75;94444.78;4989571;28;1155777;-77
2022/11/25 03:26:27;;;;;;;2.23;2.03;;;;;;;11.23;61.07;94439.81;5030751;28;20180;-78
2022/11/25 03:28:55;;;;;;;2.83;2.20;;;;;;;11.22;61.05;94452.75;5030631;28;20198;-79
2022/11/25 03:31:21;;;;;;;2.77;2.43;;;;;;;11.21;60.98;94446.03;5030950;28;20531;-78
2022/11/25 03:33:49;;;;;;;2.43;2.10;;;;;;;11.18;60.98;94452.25;5030421;28;20196;-78
2022/11/25 03:36:16;;;;;;;2.33;2.17;;;;;;;11.20;61.35;94452.91;5030686;28;20192;-78
2022/11/25 03:38:43;;;;;;;4.13;2.20;;;;;;;11.20;61.18;94460.59;5030173;28;20223;-80
2022/11/25 03:41:10;;;;;;;3.97;2.30;;;;;;;11.19;61.30;94458.19;5030929;28;20258;-80
2022/11/25 03:43:37;;;;;;;2.63;2.43;;;;;;;11.17;61.43;94465.19;5029777;28;20214;-81
2022/11/25 03:46:04;;;;;;;2.60;2.40;;;;;;;11.14;61.42;94468.03;5031478;28;20290;-79
2022/11/25 03:48:30;;;;;;;2.67;2.47;;;;;;;11.09;61.50;94465.09;5038016;28;20184;-79
2022/11/25 03:50:59;;;;;;;2.63;2.40;;;;;;;11.04;61.52;94460.44;5038633;28;20185;-78
2022/11/25 03:53:25;;;;;;;2.70;2.50;;;;;;;11.01;61.61;94461.53;5018209;28;20560;-77
2022/11/25 03:55:52;;;;;;;3.23;2.43;;;;;;;11.02;61.89;94475.13;5015869;28;20188;-80
2022/11/25 03:58:19;;;;;;;3.07;2.20;;;;;;;10.97;61.94;94478.13;5015433;28;20219;-80
2022/11/25 04:00:46;;;;;;;2.37;2.23;;;;;;;10.94;62.05;94477.63;5015997;28;20588;-80
2022/11/25 04:03:13;;;;;;;2.53;2.33;;;;;;;10.86;62.26;94473.22;5030994;28;20191;-81
2022/11/25 04:05:39;;;;;;;3.33;2.30;;;;;;;10.88;62.19;94481.56;5034831;28;20199;-82
2022/11/25 04:08:08;;;;;;;1.90;1.80;;;;;;;10.84;62.37;94487.91;5035026;28;20206;-79
2022/11/25 04:10:35;;;;;;;2.23;2.10;;;;;;;10.81;62.41;94490.75;5042668;28;20203;-80
2022/11/25 04:13:00;;;;;;;2.00;1.90;;;;;;;10.75;62.41;94494.69;5036095;28;20203;-81
2022/11/25 04:15:27;;;;;;;2.43;2.20;;;;;;;10.77;62.62;94497.09;5025025;28;20721;-80
2022/11/25 04:17:54;;;;;;;2.40;2.20;;;;;;;10.62;62.67;94484.00;5021568;28;20196;-80
2022/11/25 04:20:22;;;;;;;2.80;2.23;;;;;;;10.70;62.68;94501.97;5020016;28;20192;-82
2022/11/25 04:22:49;;;;;;;2.30;2.10;;;;;;;10.68;62.81;94503.88;5020821;28;20189;-80
2022/11/25 04:25:17;;;;;;;2.00;1.90;;;;;;;10.60;62.77;94493.56;5033537;28;20227;-80
2022/11/25 04:27:44;;;;;;;2.43;2.23;;;;;;;10.64;62.79;94501.75;5016818;28;20254;-80
2022/11/25 04:30:11;;;;;;;2.33;2.20;;;;;;;10.61;62.85;94505.38;5014957;28;20193;-81
2022/11/25 04:32:38;;;;;;;2.27;2.13;;;;;;;10.57;62.89;94505.81;5016535;28;20192;-82
2022/11/25 04:35:06;;;;;;;2.20;2.00;;;;;;;10.56;63.03;94510.13;5015301;28;20562;-83
2022/11/25 04:37:33;;;;;;;2.63;2.20;;;;;;;10.51;62.98;94509.75;5016265;28;20196;-83
2022/11/25 04:39:59;;;;;;;2.33;1.90;;;;;;;10.52;63.14;94513.91;5015964;28;20212;-83
2022/11/25 04:42:35;;;;;;;2.60;2.40;;;;;;;10.49;63.10;94529.53;5014862;28;20192;-81
2022/11/25 04:45:04;;;;;;;2.57;2.33;;;;;;;10.47;63.28;94528.88;5025914;28;20202;-84
2022/11/25 04:47:31;;;;;;;2.50;2.13;;;;;;;10.44;63.36;94524.84;5016497;28;20306;-85
2022/11/25 04:49:58;;;;;;;2.00;1.90;;;;;;;10.42;63.03;94523.38;5015934;28;20192;-84
2022/11/25 04:52:25;;;;;;;2.40;2.20;;;;;;;10.42;63.01;94531.84;5037223;28;20702;-82
2022/11/25 04:54:53;;;;;;;4.03;2.30;;;;;;;10.39;63.35;94532.13;5035002;28;20647;-82
2022/11/25 04:57:20;;;;;;;3.17;2.00;;;;;;;10.39;63.31;94536.44;5019074;28;20195;-84
2022/11/25 04:59:47;;;;;;;2.13;2.03;;;;;;;10.39;63.43;94551.78;5018660;28;20228;-85
2022/11/25 05:02:16;;;;;;;2.37;2.17;;;;;;;10.37;63.46;94551.13;5018374;28;20196;-83
2022/11/25 05:04:44;;;;;;;2.53;2.33;;;;;;;10.25;63.27;94538.50;5018156;28;20636;-86
2022/11/25 05:07:11;;;;;;;2.30;2.10;;;;;;;10.26;63.66;94552.88;5033400;28;20618;-82
2022/11/25 05:09:38;;;;;;;2.30;2.03;;;;;;;10.25;63.51;94551.28;5034364;28;20207;-84
2022/11/25 05:12:06;;;;;;;2.40;2.20;;;;;;;10.34;63.44;94574.41;5034444;28;20602;-81
2022/11/25 05:14:34;;;;;;;2.13;2.00;;;;;;;10.30;63.38;94577.22;5034472;28;20184;-82
2022/11/25 05:17:03;;;;;;;2.50;2.27;;;;;;;10.32;63.60;94579.66;5026020;28;20192;-83
2022/11/25 05:19:34;;;;;;;2.20;2.10;;;;;;;10.30;63.64;94576.44;5014249;28;20224;-81
2022/11/25 05:22:02;;;;;;;2.37;2.00;;;;;;;10.28;63.51;94583.44;5027389;28;20191;-81
2022/11/25 05:24:29;;;;;;;2.67;2.20;;;;;;;10.28;63.63;94591.91;5016019;28;20224;-82
2022/11/25 05:26:56;;;;;;;2.13;2.03;;;;;;;10.32;63.63;94596.72;5016418;28;20192;-80
2022/11/25 05:29:23;;;;;;;7.27;2.30;;;;;;;10.34;63.71;94605.06;5020298;28;20222;-81
2022/11/25 05:31:49;;;;;;;2.47;2.27;;;;;;;10.31;63.58;94606.16;5014412;28;20564;-81
2022/11/25 05:34:18;;;;;;;2.73;2.53;;;;;;;10.37;63.55;94612.47;5032408;28;20655;-81
2022/11/25 05:36:44;;;;;;;2.03;1.93;;;;;;;10.39;63.43;94620.78;5032916;28;20195;-82
2022/11/25 05:39:11;;;;;;;2.13;1.97;;;;;;;10.41;63.36;94616.38;5032593;28;20218;-82
2022/11/25 05:41:38;;;;;;;2.20;2.00;;;;;;;10.44;63.39;94623.75;5026402;28;20192;-82
2022/11/25 05:44:05;;;;;;;2.30;2.10;;;;;;;10.44;63.40;94634.78;5013362;28;20661;-79
2022/11/25 05:46:32;;;;;;;2.10;2.00;;;;;;;10.51;63.25;94632.47;5027837;28;20202;-80
2022/11/25 05:48:59;;;;;;;2.37;2.23;;;;;;;10.52;63.25;94640.00;5019621;28;20184;-82
2022/11/25 05:51:29;;;;;;;3.93;2.40;;;;;;;10.55;62.92;94629.50;5014620;28;20185;-86
2022/11/25 05:53:56;;;;;;;2.30;2.13;;;;;;;10.63;62.97;94641.59;5013462;28;20185;-83
2022/11/25 05:56:24;;;;;;;2.00;1.90;;;;;;;10.83;86.27;94634.66;5014019;28;20180;-89
2022/11/25 05:58:52;;;;;;;5.43;2.37;;;;;;;11.25;100.00;94599.16;5012814;28;20215;-84
2022/11/25 06:01:19;;;;;;;6.97;1.87;;;;;;;12.13;100.00;94639.53;5012947;28;20188;-84
2022/11/25 06:03:46;;;;;;;2.80;2.40;;;;;;;12.73;100.00;94637.06;5013218;28;20185;-84
2022/11/25 06:06:14;;;;;;;4.63;2.43;;;;;;;13.16;100.00;94641.25;5013375;28;20203;-80
2022/11/25 06:08:42;;;;;;;5.73;2.00;;;;;;;13.38;100.00;94644.25;5013296;28;20652;-85
2022/11/25 06:11:11;;;;;;;2.10;2.00;;;;;;;13.43;100.00;94635.16;5013157;28;20667;-81
2022/11/25 06:13:38;;;;;;;3.13;2.10;;;;;;;13.54;95.63;94652.81;5012566;28;20275;-80
2022/11/25 06:16:10;;;;;;;6.57;2.40;;;;;;;13.55;91.61;94651.06;5011990;28;20197;-84
2022/11/25 06:18:37;;;;;;;5.77;2.30;;;;;;;13.37;88.92;94637.53;5014488;28;20663;-87
2022/11/25 06:21:06;;;;;;;3.63;2.20;;;;;;;13.45;86.37;94669.19;5015239;28;20196;-85
2022/11/25 06:23:32;;;;;;;2.40;2.20;;;;;;;13.34;84.17;94666.09;5016229;28;20193;-89
2022/11/25 06:26:06;;;;;;;3.03;2.50;;;;;;;13.29;81.74;94674.25;5013694;28;20224;-86
2022/11/25 06:28:33;;;;;;;2.40;2.20;;;;;;;13.19;80.42;94669.22;5012235;28;20204;-83
2022/11/25 06:31:06;;;;;;;2.70;2.17;;;;;;;13.15;78.82;94685.09;5012608;28;20188;-89
2022/11/25 06:33:33;;;;;;;2.87;2.67;;;;;;;13.09;77.72;94690.84;5025349;28;20191;-82
2022/11/25 06:36:01;;;;;;;2.93;2.60;;;;;;;12.98;76.76;94685.00;5021046;28;20278;-83
2022/11/25 06:38:28;;;;;;;3.03;2.10;;;;;;;13.02;76.01;94698.34;5030952;28;20194;-80
2022/11/25 06:40:59;;;;;;;2.70;2.37;;;;;;;13.00;74.89;94702.84;5031281;28;20195;-82
2022/11/25 06:43:28;;;;;;;2.90;2.43;;;;;;;12.98;74.45;94699.59;5027937;28;20224;-81
2022/11/25 06:45:55;;;;;;;2.53;2.33;;;;;;;12.97;74.09;94703.13;5019594;28;20745;-80
2022/11/25 06:48:22;;;;;;;2.20;2.10;;;;;;;12.97;73.45;94700.56;5009729;28;20659;-83
2022/11/25 06:50:56;;;;;;;4.40;2.97;;;;;;;12.98;72.55;94707.28;5008716;28;20204;-84
2022/11/25 06:53:23;;;;;;;2.60;2.40;;;;;;;12.99;71.95;94708.91;5015488;28;20211;-81
2022/11/25 06:55:50;;;;;;;2.60;2.40;;;;;;;13.01;71.16;94712.13;5022250;28;20663;-81
2022/11/25 06:58:16;;;;;;;3.87;2.70;;;;;;;13.02;70.45;94714.53;5027791;28;20228;-83
2022/11/25 07:00:45;;;;;;;2.93;2.73;;;;;;;12.99;69.73;94704.56;5027934;28;20230;-81
2022/11/25 07:03:11;;;;;;;3.10;2.80;;;;;;;13.04;69.27;94712.66;5028315;28;20199;-81
2022/11/25 07:05:38;;;;;;;3.30;2.97;;;;;;;13.07;68.70;94717.44;5028598;28;20191;-82
2022/11/25 07:08:05;;;;;;;4.77;2.77;;;;;;;13.07;68.10;94717.44;5025513;28;20560;-83
2022/11/25 07:10:34;;;;;;;2.77;2.57;;;;;;;13.10;67.58;94718.13;5026480;28;20199;-82
2022/11/25 07:13:01;;;;;;;3.60;3.03;;;;;;;13.08;67.18;94715.69;5030484;28;20610;-83
2022/11/25 07:15:28;;;;;;;3.23;2.60;;;;;;;13.09;66.56;94714.75;5030278;28;20196;-82
2022/11/25 07:17:56;;;;;;;4.50;2.93;;;;;;;13.17;65.98;94730.19;5028694;28;20184;-79
2022/11/25 07:20:26;;;;;;;2.60;2.40;;;;;;;13.20;65.71;94727.31;5010606;28;20706;-79
2022/11/25 07:22:53;;;;;;;5.83;2.90;;;;;;;13.22;65.53;94733.16;5013833;28;20185;-81
2022/11/25 07:25:20;;;;;;;2.83;2.53;;;;;;;13.28;64.88;94732.53;5025233;28;20246;-82
2022/11/25 07:27:46;;;;;;;2.90;2.70;;;;;;;13.34;64.61;94730.28;5031160;28;20191;-82
2022/11/25 07:30:14;;;;;;;4.70;2.63;;;;;;;13.41;63.98;94736.44;5031205;28;20233;-81
2022/11/25 07:32:41;;;;;;;3.17;2.50;;;;;;;13.43;63.66;94737.91;5031458;28;20187;-82
2022/11/25 07:35:09;;;;;;;3.90;3.17;;;;;;;13.46;63.38;94732.44;5031055;28;20199;-78
2022/11/25 07:37:36;;;;;;;2.90;2.70;;;;;;;13.50;63.19;94738.06;5030919;28;20187;-81
2022/11/25 07:40:04;;;;;;;4.43;2.97;;;;;;;13.50;62.81;94741.44;5033792;28;20220;-79
2022/11/25 07:42:31;;;;;;;3.00;2.70;;;;;;;13.53;62.68;94741.16;5044108;28;20199;-80
2022/11/25 07:45:08;;;;;;;2.90;2.53;;;;;;;13.62;62.36;94736.84;5036180;28;20202;-82
2022/11/25 07:47:35;;;;;;;2.87;2.47;;;;;;;13.87;62.04;94752.34;5029970;28;20689;-81
2022/11/25 07:50:02;;;;;;;4.30;2.97;;;;;;;14.48;60.56;94743.47;5030990;28;20188;-80
2022/11/25 07:52:30;;;;;;;4.27;2.80;;;;;;;14.68;59.44;94728.50;5029704;28;20590;-81
2022/11/25 07:54:57;;;;;;;2.60;2.40;;;;;;;15.11;59.09;94754.88;5022735;28;20184;-80
2022/11/25 07:57:24;;;;;;;3.80;2.53;;;;;;;15.18;58.41;94753.25;5015334;28;20192;-80
2022/11/25 07:59:50;;;;;;;2.93;2.57;;;;;;;15.30;58.23;94747.59;5013965;28;20232;-78
2022/11/25 08:02:17;;;;;;;5.17;2.63;;;;;;;15.56;57.69;94756.84;5010578;28;20192;-79
2022/11/25 08:04:44;;;;;;;2.90;2.70;;;;;;;15.81;56.82;94760.19;5010060;28;20590;-78
2022/11/25 08:07:11;;;;;;;2.67;2.47;;;;;;;15.76;56.67;94755.53;5029007;28;20184;-79
2022/11/25 08:09:39;;;;;;;3.30;2.60;;;;;;;15.63;56.81;94760.38;5030652;28;20187;-80
2022/11/25 08:12:06;;;;;;;3.90;2.70;;;;;;;15.45;56.89;94757.19;5030702;28;20191;-80
2022/11/25 08:14:33;;;;;;;2.70;2.50;;;;;;;15.51;56.90;94754.78;5030368;28;20195;-80
2022/11/25 08:17:02;;;;;;;2.70;2.50;;;;;;;15.70;56.30;94761.34;5030428;28;20610;-79
2022/11/25 08:19:28;;;;;;;4.50;2.87;;;;;;;15.71;56.11;94764.72;5029494;28;20216;-78
2022/11/25 08:21:55;;;;;;;2.80;2.60;;;;;;;15.67;56.06;94766.00;5029583;28;20674;-80
2022/11/25 08:24:22;;;;;;;2.80;2.50;;;;;;;15.58;56.05;94765.22;5029687;28;20667;-77
2022/11/25 08:26:51;;;;;;;3.13;2.63;;;;;;;15.49;55.91;94766.22;5029616;28;20196;-81
2022/11/25 08:29:19;;;;;;;2.70;2.50;;;;;;;15.36;56.14;94769.31;5029747;28;20192;-79
2022/11/25 08:31:46;;;;;;;6.07;2.93;;;;;;;15.26;56.39;94769.50;5026149;28;20216;-79
2022/11/25 08:34:18;;;;;;;3.20;2.90;;;;;;;15.22;56.43;94767.41;5026983;28;20714;-80
2022/11/25 08:36:45;;;;;;;4.30;2.70;;;;;;;15.18;56.34;94766.94;5028918;28;20219;-80
2022/11/25 08:39:12;;;;;;;3.17;2.73;;;;;;;15.09;56.50;94760.19;5030772;28;20188;-81
2022/11/25 08:41:39;;;;;;;3.57;2.80;;;;;;;15.11;56.42;94765.16;5032901;28;20685;-79
2022/11/25 08:44:11;;;;;;;2.77;2.50;;;;;;;15.09;56.32;94767.13;5033217;28;20253;-82
2022/11/25 08:46:38;;;;;;;2.90;2.70;;;;;;;15.01;56.40;94763.56;5025482;28;20181;-83
2022/11/25 08:49:07;;;;;;;3.03;2.73;;;;;;;14.96;56.32;94773.56;5026261;28;20215;-81
2022/11/25 08:51:36;;;;;;;3.00;2.40;;;;;;;14.81;56.28;94754.59;5031847;28;20673;-80
2022/11/25 08:54:04;;;;;;;2.80;2.47;;;;;;;14.91;56.13;94772.44;5033371;28;20578;-81
2022/11/25 08:56:31;;;;;;;3.27;2.90;;;;;;;14.88;56.16;94767.63;5033902;28;20234;-82
2022/11/25 08:58:58;;;;;;;4.33;2.60;;;;;;;14.86;55.89;94775.50;5032822;28;20188;-80
2022/11/25 09:01:27;;;;;;;3.00;2.77;;;;;;;14.87;55.79;94776.31;5031365;28;20315;-79
2022/11/25 09:03:56;;;;;;;3.57;2.50;;;;;;;14.86;55.75;94780.66;5033055;28;20787;-79
2022/11/25 09:06:23;;;;;;;3.03;2.80;;;;;;;14.82;55.86;94778.56;5031025;28;20363;-80
2022/11/25 09:08:50;;;;;;;3.03;2.67;;;;;;;14.80;55.59;94776.94;5032005;28;20196;-78
2022/11/25 09:11:17;;;;;;;3.20;2.90;;;;;;;14.79;55.49;94767.63;5032366;28;20661;-79
2022/11/25 09:13:44;;;;;;;2.97;2.77;;;;;;;14.85;55.54;94778.22;5031827;28;20731;-79
2022/11/25 09:16:11;;;;;;;4.03;3.07;;;;;;;14.79;55.73;94777.13;5032309;28;20199;-77
2022/11/25 09:18:39;;;;;;;5.60;3.33;;;;;;;14.73;55.72;94776.00;5033007;28;20192;-79
2022/11/25 09:21:11;;;;;;;3.13;2.93;;;;;;;14.73;55.93;94770.84;5032045;28;20219;-79
2022/11/25 09:23:39;;;;;;;3.17;2.87;;;;;;;14.76;55.72;94780.00;5032109;28;20187;-79
2022/11/25 09:26:07;;;;;;;3.53;2.83;;;;;;;14.70;55.47;94765.22;5013462;28;20228;-82
2022/11/25 09:28:35;;;;;;;3.33;2.60;;;;;;;14.68;55.67;94777.41;5011550;28;20638;-80
2022/11/25 09:31:07;;;;;;;3.10;2.90;;;;;;;14.69;55.51;94782.44;5011834;28;20283;-79
2022/11/25 09:33:34;;;;;;;3.53;3.07;;;;;;;14.68;55.45;94775.69;5011923;28;20197;-81
2022/11/25 09:36:04;;;;;;;4.03;3.23;;;;;;;14.78;55.20;94778.09;5010115;28;20192;-79
2022/11/25 09:38:31;;;;;;;3.60;3.10;;;;;;;14.83;55.35;94770.69;5015878;28;20351;-79
2022/11/25 09:41:03;;;;;;;3.50;3.20;;;;;;;14.86;55.14;94774.72;5013471;28;20212;-79
2022/11/25 09:46:46;;;;;;;2.97;2.77;;;;;;;14.93;55.02;94778.22;5010551;28;20187;-78
2022/11/25 09:49:30;;;;;;;6.27;3.23;;;;;;;14.96;54.77;94781.28;5011378;28;20219;-79
2022/11/25 09:52:09;;;;;;;3.30;3.00;;;;;;;15.00;54.94;94779.19;5008543;28;20204;-79
2022/11/25 09:54:39;;;;;;;5.83;3.20;;;;;;;15.05;54.68;94761.47;5011264;28;20564;-80
2022/11/25 09:57:21;;;;;;;3.10;2.80;;;;;;;15.24;54.42;94778.34;5011239;28;20200;-78
2022/11/25 09:59:59;;;;;;;4.07;3.00;;;;;;;15.26;54.28;94784.16;5010846;28;20307;-81
2022/11/25 10:02:30;;;;;;;3.40;2.50;;;;;;;15.24;54.40;94780.91;5011658;28;20246;-81
2022/11/25 10:05:06;;;;;;;4.07;2.73;;;;;;;15.20;54.40;94774.50;5007134;28;20207;-81
2022/11/25 10:07:39;;;;;;;3.33;3.03;;;;;;;15.14;54.65;94780.31;5011025;28;20192;-79
2022/11/25 10:10:14;;;;;;;3.23;2.80;;;;;;;15.19;54.35;94783.19;5010613;28;20239;-79
2022/11/25 10:12:44;;;;;;;4.20;3.00;;;;;;;15.25;54.43;94785.94;5012233;28;20279;-79
2022/11/25 10:15:18;;;;;;;3.80;3.30;;;;;;;15.25;53.93;94785.13;5017210;28;20224;-80
2022/11/25 10:17:49;;;;;;;8.80;3.13;;;;;;;15.23;54.44;94774.16;5012208;28;20193;-79
2022/11/25 10:20:21;;;;;;;3.43;2.93;;;;;;;15.32;54.11;94788.63;5014469;28;20695;-79
2022/11/25 10:22:51;;;;;;;3.33;3.03;;;;;;;15.38;53.96;94792.34;5015597;28;20192;-78
2022/11/25 10:25:21;;;;;;;4.30;2.73;;;;;;;15.37;54.21;94776.09;5025558;28;20223;-79
2022/11/25 10:27:54;;;;;;;3.87;2.73;;;;;;;15.36;54.09;94773.66;5030958;28;20203;-78
2022/11/25 10:30:23;;;;;;;3.23;2.87;;;;;;;15.18;54.18;94750.66;5029973;28;20195;-79
2022/11/25 10:32:53;;;;;;;4.23;2.67;;;;;;;15.30;54.09;94769.97;5030712;28;21936;-77
2022/11/25 10:35:29;;;;;;;7.17;2.60;;;;;;;15.32;54.10;94791.22;5030268;28;20199;-77
2022/11/25 10:38:00;;;;;;;4.00;2.80;;;;;;;15.32;53.89;94768.03;5030255;28;20651;-80
2022/11/25 10:40:27;;;;;;;2.70;2.50;;;;;;;15.44;53.66;94768.47;5029734;28;20223;-79
2022/11/25 10:42:53;;;;;;;3.93;2.80;;;;;;;15.41;53.73;94772.19;5029789;28;20667;-79
2022/11/25 10:45:30;;;;;;;2.80;2.60;;;;;;;15.42;53.70;94775.59;5029841;28;20603;-79
2022/11/25 10:48:22;;;;;;;2.70;2.43;;;;;;;15.47;53.36;94770.75;5030230;28;20349;-79
2022/11/25 10:51:04;;;;;;;4.53;2.80;;;;;;;15.49;53.36;94771.38;5028005;28;20195;-79
2022/11/25 10:53:32;;;;;;;2.93;2.63;;;;;;;15.48;53.27;94777.50;5029492;28;20199;-80
2022/11/25 10:56:02;;;;;;;2.60;2.37;;;;;;;15.45;53.33;94778.63;5027225;28;20196;-78
2022/11/25 10:58:34;;;;;;;3.37;2.40;;;;;;;15.46;53.26;94787.97;5029784;28;20211;-77
2022/11/25 11:01:07;;;;;;;6.67;2.20;;;;;;;15.35;53.17;94772.84;5029776;28;20234;-78
2022/11/25 11:03:35;;;;;;;3.43;2.53;;;;;;;15.41;53.27;94799.72;5028491;28;20203;-77
2022/11/25 11:06:02;;;;;;;2.90;2.50;;;;;;;15.13;53.00;94756.31;5029889;28;20188;-78
2022/11/25 11:08:38;;;;;;;3.53;2.40;;;;;;;15.36;53.16;94797.66;5029944;28;20578;-77
2022/11/25 11:11:14;;;;;;;2.77;2.57;;;;;;;15.37;53.38;94801.03;5026956;28;20198;-77
2022/11/25 11:13:41;;;;;;;2.80;2.40;;;;;;;15.36;53.00;94812.31;5029245;28;20654;-78
2022/11/25 11:16:25;;;;;;;4.77;3.07;;;;;;;15.30;53.24;94806.84;5029498;28;20254;-77
2022/11/25 11:18:53;;;;;;;4.77;2.67;;;;;;;15.29;53.02;94807.81;5027426;28;20583;-77
2022/11/25 11:21:29;;;;;;;2.80;2.50;;;;;;;15.28;52.98;94820.84;5029247;28;20211;-77
2022/11/25 11:23:58;;;;;;;7.23;2.87;;;;;;;15.17;53.09;94803.97;5029741;28;20210;-80
2022/11/25 11:26:27;;;;;;;4.13;2.67;;;;;;;15.16;53.18;94802.38;5029663;28;20188;-80
2022/11/25 11:28:59;;;;;;;2.93;2.60;;;;;;;15.12;53.41;94803.66;5029010;28;20203;-78
2022/11/25 11:31:31;;;;;;;5.80;2.53;;;;;;;15.09;53.41;94806.56;5029327;28;20202;-77
2022/11/25 11:34:08;;;;;;;3.77;2.83;;;;;;;14.95;53.57;94791.75;5029698;28;20221;-77
2022/11/25 11:36:51;;;;;;;3.83;2.90;;;;;;;15.01;53.60;94802.19;5030675;28;20187;-78
2022/11/25 11:39:34;;;;;;;2.70;2.50;;;;;;;14.96;53.56;94809.63;5029556;28;20666;-78
2022/11/25 11:42:07;;;;;;;3.37;3.03;;;;;;;14.94;53.58;94813.31;5030104;28;20289;-78
2022/11/25 11:44:59;;;;;;;4.37;2.93;;;;;;;14.91;53.75;94816.22;5029495;28;20203;-78
2022/11/25 11:47:36;;;;;;;2.77;2.57;;;;;;;14.85;53.82;94822.81;5029167;28;20196;-79
2022/11/25 11:50:23;;;;;;;7.07;2.83;;;;;;;14.76;53.87;94808.31;5029482;28;20551;-77